Time;durP1;ratioP1;P1;durP2;ratioP2;P2;SDS_P1;SDS_P2;PMS_P1;PMS_P2;Temp;Humidity;BMP_temperature;BMP_pressure;BME280_temperature;BME280_humidity;BME280_pressure;Samples;Min_cycle;Max_cycle;Signal;HPM_P1;HPM_P2
2021/12/12 00:01:42;;;;;;;16.33;4.17;;;-5.10;99.90;-6.50;100572;;;;567604;248;24102;-75
2021/12/12 00:04:13;;;;;;;14.63;5.90;;;-5.10;99.90;-6.50;100577;;;;570250;248;24101;-73
2021/12/12 00:06:38;;;;;;;9.43;4.57;;;-5.10;99.90;-6.60;100567;;;;570140;248;24164;-78
2021/12/12 00:09:14;;;;;;;18.10;5.33;;;-5.10;99.90;-6.60;100556;;;;569926;248;24153;-75
2021/12/12 00:11:39;;;;;;;9.77;3.67;;;-5.20;99.90;-6.60;100558;;;;569521;248;24092;-74
2021/12/12 00:14:13;;;;;;;10.83;3.97;;;-5.20;99.90;-6.70;100556;;;;569564;248;24113;-75
2021/12/12 00:16:41;;;;;;;14.43;5.17;;;-5.20;99.90;-6.70;100561;;;;567158;248;25141;-72
2021/12/12 00:19:09;;;;;;;10.67;4.37;;;-5.30;99.90;-6.80;100557;;;;569224;248;24106;-74
2021/12/12 00:21:37;;;;;;;11.87;3.53;;;-5.30;99.90;-6.80;100557;;;;587520;243;24192;-74
2021/12/12 00:24:05;;;;;;;11.03;4.17;;;-5.40;99.90;-6.80;100562;;;;580352;243;24102;-76
2021/12/12 00:26:33;;;;;;;16.85;7.05;;;-5.40;99.90;-6.90;100566;;;;565018;248;35399;-77
2021/12/12 00:29:01;;;;;;;5.60;3.27;;;-5.40;99.90;-6.90;100567;;;;574486;246;24051;-77
2021/12/12 00:31:29;;;;;;;13.15;6.68;;;-5.50;99.90;-6.90;100569;;;;577869;246;35142;-76
2021/12/12 00:33:56;;;;;;;9.40;4.60;;;-5.50;99.90;-6.80;100569;;;;583340;246;24091;-74
2021/12/12 00:36:24;;;;;;;19.77;9.63;;;-5.40;99.90;-6.80;100572;;;;571720;246;24166;-76
2021/12/12 00:39:01;;;;;;;14.17;6.10;;;-5.40;99.90;-6.70;100569;;;;574488;246;24070;-74
2021/12/12 00:41:26;;;;;;;14.53;5.97;;;-5.30;99.90;-6.70;100575;;;;573930;246;24112;-75
2021/12/12 00:43:54;;;;;;;15.23;5.93;;;-5.30;99.90;-6.70;100582;;;;574077;246;24094;-73
2021/12/12 00:46:22;;;;;;;10.13;4.93;;;-5.30;99.90;-6.80;100589;;;;574214;246;24071;-73
2021/12/12 00:48:54;;;;;;;9.40;4.87;;;-5.30;99.90;-6.80;100589;;;;569282;248;24145;-72
2021/12/12 00:51:19;;;;;;;12.37;6.00;;;-5.50;99.90;-6.90;100599;;;;580595;243;24081;-73
2021/12/12 00:53:47;;;;;;;17.37;6.63;;;-5.50;99.90;-6.90;100599;;;;569093;248;24081;-74
2021/12/12 00:56:15;;;;;;;15.67;6.03;;;-5.50;99.90;-7.00;100591;;;;582898;246;24100;-74
2021/12/12 00:58:44;;;;;;;19.17;6.20;;;-5.60;99.90;-7.00;100594;;;;583042;246;24114;-73
2021/12/12 01:01:12;;;;;;;13.43;7.13;;;-5.60;99.90;-7.00;100592;;;;582888;246;24097;-75
2021/12/12 01:03:43;;;;;;;25.57;10.37;;;-5.60;99.90;-7.00;100602;;;;574041;246;24107;-75
2021/12/12 01:06:12;;;;;;;18.40;7.10;;;-5.60;99.90;-7.00;100610;;;;575201;246;24078;-75
2021/12/12 01:08:40;;;;;;;22.27;7.80;;;-5.60;99.90;-7.00;100602;;;;575141;246;24081;-75
2021/12/12 01:11:12;;;;;;;16.93;7.17;;;-5.50;99.90;-6.90;100603;;;;590171;243;24074;-73
2021/12/12 01:13:39;;;;;;;18.70;7.40;;;-5.60;99.90;-6.90;100599;;;;570353;248;24088;-75
2021/12/12 01:16:19;;;;;;;16.10;7.97;;;-5.50;99.90;-6.90;100599;;;;568942;246;24139;-74
2021/12/12 01:18:48;;;;;;;34.23;10.20;;;-5.40;99.90;-6.80;100610;;;;583421;244;24133;-74
2021/12/12 01:21:15;;;;;;;24.43;10.47;;;-5.40;99.90;-6.70;100606;;;;574652;246;24064;-77
2021/12/12 01:23:43;;;;;;;37.13;13.80;;;-5.30;99.90;-6.60;100606;;;;574435;246;24121;-77
2021/12/12 01:26:15;;;;;;;31.63;11.87;;;-5.20;99.90;-6.50;100608;;;;574274;246;24177;-76
2021/12/12 01:28:42;;;;;;;34.80;13.03;;;-5.10;99.90;-6.50;100610;;;;569216;246;24106;-75
2021/12/12 01:31:09;;;;;;;31.10;12.10;;;-5.00;99.90;-6.40;100617;;;;574665;246;24080;-74
2021/12/12 01:33:38;;;;;;;58.70;19.07;;;-5.00;99.90;-6.40;100607;;;;574368;246;24127;-75
2021/12/12 01:36:12;;;;;;;32.67;15.97;;;-5.00;99.90;-6.40;100605;;;;574360;246;24095;-71
2021/12/12 01:38:57;;;;;;;41.60;18.53;;;-5.00;99.90;-6.40;100600;;;;574371;246;24060;-77
2021/12/12 01:41:23;;;;;;;44.17;19.03;;;-5.00;99.90;-6.50;100618;;;;574677;246;24063;-75
2021/12/12 01:43:52;;;;;;;27.17;11.37;;;-5.10;99.90;-6.50;100623;;;;574098;246;24130;-74
2021/12/12 01:46:26;;;;;;;34.87;13.40;;;-5.10;99.90;-6.50;100614;;;;573993;246;24065;-73
2021/12/12 01:48:57;;;;;;;38.53;16.30;;;-5.10;99.90;-6.40;100602;;;;574052;246;24070;-73
2021/12/12 01:51:24;;;;;;;32.87;13.53;;;-5.10;99.90;-6.40;100605;;;;572078;246;24093;-74
2021/12/12 01:53:52;;;;;;;28.20;13.57;;;-5.00;99.90;-6.40;100608;;;;573762;246;24073;-73
2021/12/12 01:56:20;;;;;;;42.90;14.60;;;-5.00;99.90;-6.40;100604;;;;573840;246;24083;-75
2021/12/12 01:58:48;;;;;;;37.67;16.63;;;-5.10;99.90;-6.40;100609;;;;574037;246;24111;-75
2021/12/12 02:01:16;;;;;;;34.70;16.87;;;-5.10;99.90;-6.50;100616;;;;574050;246;24099;-77
2021/12/12 02:03:47;;;;;;;33.07;12.83;;;-5.10;99.90;-6.50;100607;;;;574055;246;24095;-76
2021/12/12 02:06:15;;;;;;;37.13;13.43;;;-5.10;99.90;-6.50;100610;;;;574079;246;24088;-75
2021/12/12 02:08:43;;;;;;;40.03;15.43;;;-5.10;99.90;-6.50;100612;;;;574035;246;24116;-74
2021/12/12 02:11:10;;;;;;;50.73;16.43;;;-5.10;99.90;-6.50;100602;;;;571356;246;24089;-76
2021/12/12 02:13:38;;;;;;;44.73;19.10;;;-5.10;99.90;-6.50;100599;;;;573811;246;24105;-73
2021/12/12 02:16:09;;;;;;;43.60;17.60;;;-5.10;99.90;-6.50;100604;;;;573813;244;24066;-73
2021/12/12 02:18:37;;;;;;;50.13;18.93;;;-5.20;99.90;-6.60;100595;;;;575523;246;24063;-75
2021/12/12 02:21:21;;;;;;;28.07;11.27;;;-5.20;99.90;-6.60;100595;;;;574735;246;24234;-76
2021/12/12 02:37:16;;;;;;;46.03;16.27;;;-5.00;99.90;-6.30;100628;;;;580825;243;24142;-78
2021/12/12 02:39:44;;;;;;;27.93;9.27;;;-4.90;99.90;-6.20;100644;;;;580772;243;24071;-75
2021/12/12 02:42:12;;;;;;;39.40;14.30;;;-4.90;99.90;-6.20;100637;;;;580735;243;24200;-73
2021/12/12 02:44:40;;;;;;;42.60;17.37;;;-4.90;99.90;-6.30;100628;;;;580636;243;24116;-75
2021/12/12 02:47:11;;;;;;;34.67;13.87;;;-4.90;99.90;-6.30;100638;;;;580191;243;24122;-74
2021/12/12 02:49:40;;;;;;;35.23;14.57;;;-4.90;99.90;-6.30;100636;;;;579624;243;24104;-73
2021/12/12 02:52:07;;;;;;;33.33;13.03;;;-4.90;99.90;-6.30;100657;;;;566180;249;24093;-73
2021/12/12 02:54:36;;;;;;;16.53;8.73;;;-4.90;99.90;-6.30;100655;;;;569050;248;24113;-73
2021/12/12 02:57:04;;;;;;;15.33;7.03;;;-4.90;99.90;-6.30;100647;;;;579743;243;24053;-75
2021/12/12 02:59:35;;;;;;;40.47;12.73;;;-4.90;99.90;-6.20;100655;;;;588497;243;24158;-74
2021/12/12 03:02:00;;;;;;;23.77;10.73;;;-4.90;99.90;-6.20;100665;;;;569247;248;24079;-76
2021/12/12 03:04:29;;;;;;;13.93;5.90;;;-4.80;99.90;-6.20;100668;;;;577797;248;24077;-74
2021/12/12 03:06:57;;;;;;;12.90;5.00;;;-4.80;99.90;-6.10;100654;;;;577114;243;24073;-73
2021/12/12 03:09:25;;;;;;;16.07;7.37;;;-4.70;99.90;-6.00;100664;;;;589188;243;24044;-75
2021/12/12 03:11:58;;;;;;;6.27;4.67;;;-4.70;99.90;-6.00;100652;;;;579865;243;24151;-74
2021/12/12 03:14:32;;;;;;;10.87;4.50;;;-4.60;99.90;-5.90;100660;;;;577178;243;24067;-74
2021/12/12 03:16:57;;;;;;;17.73;4.80;;;-4.50;99.90;-5.80;100655;;;;578875;243;24074;-76
2021/12/12 03:19:25;;;;;;;12.40;3.90;;;-4.40;99.90;-5.70;100650;;;;581698;240;24017;-77
2021/12/12 03:21:53;;;;;;;7.93;3.50;;;-4.30;99.90;-5.70;100656;;;;598433;240;24052;-74
2021/12/12 03:24:20;;;;;;;13.83;4.90;;;-4.30;99.90;-5.60;100663;;;;584550;240;24407;-74
2021/12/12 03:26:48;;;;;;;6.87;4.03;;;-4.20;99.90;-5.60;100668;;;;588644;240;24077;-75
2021/12/12 03:29:16;;;;;;;12.10;4.93;;;-4.20;99.90;-5.60;100663;;;;588264;239;24028;-78
2021/12/12 03:31:44;;;;;;;22.80;10.90;;;-4.20;99.90;-5.50;100672;;;;590205;239;24118;-74
2021/12/12 03:34:12;;;;;;;18.13;7.70;;;-4.10;99.90;-5.60;100670;;;;575801;244;24075;-74
2021/12/12 03:36:40;;;;;;;29.63;11.87;;;-4.10;99.90;-5.60;100667;;;;579077;244;24095;-76
2021/12/12 03:39:08;;;;;;;17.73;7.87;;;-4.20;99.90;-5.70;100656;;;;576355;245;24113;-74
2021/12/12 03:41:40;;;;;;;18.87;10.00;;;-4.30;99.90;-5.80;100671;;;;597683;240;24053;-75
2021/12/12 03:44:06;;;;;;;21.53;8.37;;;-4.40;99.90;-5.90;100664;;;;586959;244;24085;-74
2021/12/12 03:46:34;;;;;;;27.70;9.57;;;-4.50;99.90;-6.00;100664;;;;574663;245;24065;-74
2021/12/12 03:49:02;;;;;;;25.43;9.83;;;-4.60;99.90;-6.10;100667;;;;587011;244;24070;-74
2021/12/12 03:51:30;;;;;;;24.60;10.83;;;-4.70;99.90;-6.10;100663;;;;578129;244;24117;-78
2021/12/12 03:54:01;;;;;;;31.50;11.77;;;-4.80;99.90;-6.20;100666;;;;588735;240;24103;-78
2021/12/12 03:56:26;;;;;;;27.57;12.13;;;-4.90;99.90;-6.40;100662;;;;588781;240;24080;-78
2021/12/12 03:58:57;;;;;;;30.97;13.47;;;-5.00;99.90;-6.40;100665;;;;588780;240;24080;-78
2021/12/12 04:01:24;;;;;;;33.03;12.30;;;-5.10;99.90;-6.40;100659;;;;588483;240;24163;-77
2021/12/12 04:03:52;;;;;;;24.13;10.13;;;-5.10;99.90;-6.40;100669;;;;588528;240;24125;-79
2021/12/12 04:06:20;;;;;;;22.93;10.07;;;-5.10;99.90;-6.40;100676;;;;588743;240;24149;-76
2021/12/12 04:08:48;;;;;;;28.07;13.00;;;-5.00;99.90;-6.30;100676;;;;577885;244;24094;-78
2021/12/12 04:11:21;;;;;;;22.70;10.60;;;-5.00;99.90;-6.30;100675;;;;577866;244;24062;-77
2021/12/12 04:13:49;;;;;;;17.17;7.07;;;-4.90;99.90;-6.20;100673;;;;577942;244;24076;-74
2021/12/12 04:16:20;;;;;;;23.03;10.03;;;-4.90;99.90;-6.10;100661;;;;588588;240;24052;-78
2021/12/12 04:18:45;;;;;;;34.73;14.07;;;-4.80;99.90;-6.10;100666;;;;577753;244;24070;-77
2021/12/12 04:21:13;;;;;;;12.67;7.17;;;-4.80;99.90;-6.10;100670;;;;586897;244;24157;-74
2021/12/12 04:23:41;;;;;;;24.77;8.50;;;-4.70;99.90;-6.10;100676;;;;577306;248;24105;-76
2021/12/12 04:26:12;;;;;;;13.70;6.97;;;-4.70;99.90;-6.00;100671;;;;583057;243;24064;-78
2021/12/12 04:28:39;;;;;;;18.25;7.30;;;-4.70;99.90;-6.00;100678;;;;573169;243;35108;-74
2021/12/12 04:31:07;;;;;;;16.30;7.73;;;-4.70;99.90;-6.00;100680;;;;577452;248;24118;-75
2021/12/12 04:33:35;;;;;;;26.97;8.50;;;-4.60;99.90;-5.90;100674;;;;567825;249;24086;-73
2021/12/12 04:36:04;;;;;;;15.30;6.60;;;-4.60;99.90;-5.90;100670;;;;568887;248;24143;-74
2021/12/12 04:38:32;;;;;;;17.90;6.77;;;-4.60;99.90;-5.90;100670;;;;571022;243;24099;-75
2021/12/12 04:41:00;;;;;;;13.30;5.73;;;-4.50;99.90;-5.90;100665;;;;581275;243;24055;-74
2021/12/12 04:43:28;;;;;;;17.00;7.43;;;-4.50;99.90;-5.80;100670;;;;570448;248;24081;-73
2021/12/12 04:46:07;;;;;;;17.93;9.90;;;-4.50;99.90;-5.80;100670;;;;570014;248;24154;-73
2021/12/12 04:51:33;;;;;;;26.07;11.47;;;-4.50;99.90;-6.00;100675;;;;580698;243;24161;-73
2021/12/12 04:54:32;;;;;;;32.57;10.87;;;-4.60;99.90;-6.00;100681;;;;576180;243;24115;-74
2021/12/12 04:57:11;;;;;;;20.77;10.37;;;-4.60;99.90;-6.00;100680;;;;580114;243;24135;-73
2021/12/12 04:59:45;;;;;;;26.57;10.43;;;-4.60;99.90;-5.90;100688;;;;580529;243;24084;-75
2021/12/12 05:02:43;;;;;;;27.33;12.60;;;-4.60;99.90;-5.90;100693;;;;566898;248;24178;-74
2021/12/12 05:05:23;;;;;;;17.20;7.00;;;-4.60;99.90;-5.80;100681;;;;569638;248;24136;-74
2021/12/12 05:08:09;;;;;;;10.13;4.67;;;-4.50;99.90;-5.70;100706;;;;577820;248;25134;-73
2021/12/12 05:11:01;;;;;;;8.73;3.27;;;-4.40;99.90;-5.70;100701;;;;566559;249;24132;-74
2021/12/12 05:13:33;;;;;;;10.23;4.67;;;-4.30;99.90;-5.60;100696;;;;558321;253;24126;-74
2021/12/12 05:16:01;;;;;;;6.10;3.73;;;-4.30;99.90;-5.50;100699;;;;564447;251;24139;-72
2021/12/12 05:18:32;;;;;;;7.47;2.97;;;-4.20;99.90;-5.50;100704;;;;566591;248;24273;-73
2021/12/12 05:21:09;;;;;;;7.10;3.93;;;-4.10;99.90;-5.40;100702;;;;578255;248;24217;-73
2021/12/12 05:23:37;;;;;;;6.70;3.50;;;-4.10;99.90;-5.40;100706;;;;578140;248;24100;-76
2021/12/12 05:26:06;;;;;;;3.93;2.50;;;-4.00;99.90;-5.40;100700;;;;573938;248;24134;-76
2021/12/12 05:28:34;;;;;;;9.47;5.00;;;-4.00;99.90;-5.40;100702;;;;573746;248;24096;-74
2021/12/12 05:31:02;;;;;;;7.67;3.80;;;-4.00;99.90;-5.40;100712;;;;573804;248;24110;-72
2021/12/12 05:33:30;;;;;;;16.93;7.00;;;-4.00;99.90;-5.40;100717;;;;573862;248;24096;-75
2021/12/12 05:35:58;;;;;;;19.27;9.17;;;-4.10;99.90;-5.40;100713;;;;573738;248;24140;-75
2021/12/12 05:38:26;;;;;;;15.80;8.00;;;-4.00;99.90;-5.40;100713;;;;578341;248;24126;-73
2021/12/12 05:40:54;;;;;;;24.10;8.83;;;-4.00;99.90;-5.40;100721;;;;569632;248;25139;-73
2021/12/12 05:43:22;;;;;;;9.80;5.13;;;-4.00;99.90;-5.40;100725;;;;569748;248;24184;-76
2021/12/12 05:45:50;;;;;;;15.63;6.53;;;-4.10;99.90;-5.30;100715;;;;559204;253;24212;-76
2021/12/12 05:48:18;;;;;;;10.00;4.30;;;-4.00;99.90;-5.30;100720;;;;578385;248;24201;-75
2021/12/12 05:50:46;;;;;;;18.62;8.32;;;-4.00;99.90;-5.30;100719;;;;563050;252;35599;-75
2021/12/12 05:53:14;;;;;;;6.80;3.10;;;-4.00;99.90;-5.30;100727;;;;570342;247;24135;-74
2021/12/12 05:55:46;;;;;;;10.77;4.07;;;-4.00;99.90;-5.30;100721;;;;566564;247;24114;-75
2021/12/12 05:58:13;;;;;;;16.83;7.47;;;-4.00;99.90;-5.40;100726;;;;578593;248;24130;-73
2021/12/12 06:00:44;;;;;;;11.60;6.83;;;-4.00;99.90;-5.50;100720;;;;578601;248;24104;-75
2021/12/12 06:03:12;;;;;;;12.57;6.93;;;-4.20;99.90;-5.60;100735;;;;559473;252;24134;-74
2021/12/12 06:05:40;;;;;;;4.53;3.00;;;-4.20;99.90;-5.70;100736;;;;553009;252;24172;-74
2021/12/12 06:08:08;;;;;;;16.83;5.00;;;-4.30;99.90;-5.80;100735;;;;559864;252;24119;-76
2021/12/12 06:10:37;;;;;;;21.77;8.40;;;-4.50;99.90;-5.80;100730;;;;569577;248;24115;-73
2021/12/12 06:13:09;;;;;;;15.10;6.13;;;-4.50;99.90;-5.90;100743;;;;574220;248;24106;-73
2021/12/12 06:15:34;;;;;;;7.53;3.63;;;-4.70;99.90;-6.00;100742;;;;568726;248;24116;-74
2021/12/12 06:18:02;;;;;;;6.33;3.00;;;-4.70;99.90;-6.00;100733;;;;568059;252;24121;-73
2021/12/12 06:20:31;;;;;;;11.20;4.50;;;-4.70;99.90;-6.00;100737;;;;569148;248;24083;-74
2021/12/12 06:22:59;;;;;;;12.40;4.93;;;-4.70;99.90;-6.00;100731;;;;576792;248;24081;-74
2021/12/12 06:25:27;;;;;;;23.93;8.93;;;-4.60;99.90;-5.90;100731;;;;569165;248;24169;-73
2021/12/12 06:27:55;;;;;;;25.37;10.47;;;-4.60;99.90;-5.90;100720;;;;569464;248;24131;-73
2021/12/12 06:30:23;;;;;;;22.33;10.07;;;-4.50;99.90;-5.90;100725;;;;558976;253;24150;-74
2021/12/12 06:32:51;;;;;;;13.60;7.43;;;-4.50;99.90;-5.80;100725;;;;558817;253;24138;-75
2021/12/12 06:35:23;;;;;;;14.60;6.40;;;-4.50;99.90;-5.80;100728;;;;559137;253;24169;-75
2021/12/12 06:37:47;;;;;;;8.37;3.53;;;-4.50;99.90;-5.80;100730;;;;577537;248;24121;-75
2021/12/12 06:40:14;;;;;;;8.63;4.63;;;-4.40;99.90;-5.70;100726;;;;578402;248;24156;-74
2021/12/12 06:42:42;;;;;;;23.03;8.67;;;-4.40;99.90;-5.70;100725;;;;569559;248;24125;-75
2021/12/12 06:45:10;;;;;;;12.70;5.53;;;-4.40;99.90;-5.70;100728;;;;569800;248;24123;-76
2021/12/12 06:47:38;;;;;;;11.63;4.77;;;-4.30;99.90;-5.70;100732;;;;569612;248;24089;-77
2021/12/12 06:50:06;;;;;;;17.03;7.33;;;-4.30;99.90;-5.70;100735;;;;569737;248;24083;-73
2021/12/12 06:52:34;;;;;;;21.27;8.50;;;-4.40;99.90;-5.70;100725;;;;569664;248;24121;-76
2021/12/12 06:55:02;;;;;;;9.00;5.27;;;-4.40;99.90;-5.70;100732;;;;567071;248;24134;-75
2021/12/12 06:57:30;;;;;;;16.43;5.27;;;-4.40;99.90;-5.80;100739;;;;568823;248;24109;-74
2021/12/12 07:00:01;;;;;;;14.23;6.07;;;-4.40;99.90;-5.80;100740;;;;569404;248;24084;-76
2021/12/12 07:02:26;;;;;;;13.63;5.43;;;-4.40;99.90;-5.80;100742;;;;569090;246;24113;-75
2021/12/12 07:04:58;;;;;;;11.63;5.27;;;-4.40;99.90;-5.80;100739;;;;568399;247;24124;-77
2021/12/12 07:07:22;;;;;;;16.90;5.67;;;-4.40;99.90;-5.80;100740;;;;569885;248;24136;-76
2021/12/12 07:09:51;;;;;;;15.13;5.90;;;-4.40;99.90;-5.70;100740;;;;569651;248;24096;-78
2021/12/12 07:12:22;;;;;;;9.57;4.43;;;-4.40;99.90;-5.70;100740;;;;569992;248;24130;-73
2021/12/12 07:14:45;;;;;;;12.83;7.87;;;-4.40;99.90;-5.70;100748;;;;569883;248;24121;-78
2021/12/12 07:17:13;;;;;;;21.48;7.22;;;-4.30;99.90;-5.60;100759;;;;565032;248;46227;-74
2021/12/12 07:19:41;;;;;;;9.50;5.00;;;-4.30;99.90;-5.50;100750;;;;569819;248;24108;-73
2021/12/12 07:22:10;;;;;;;26.70;12.13;;;-4.10;99.90;-5.40;100754;;;;569562;248;24128;-73
2021/12/12 07:24:39;;;;;;;18.83;5.93;;;-4.00;99.90;-5.30;100755;;;;559084;253;24134;-72
2021/12/12 07:27:07;;;;;;;16.70;6.93;;;-3.90;99.90;-5.20;100759;;;;567388;251;24133;-73
2021/12/12 07:29:36;;;;;;;11.13;5.47;;;-3.80;99.90;-5.10;100758;;;;569712;248;24139;-73
2021/12/12 07:32:04;;;;;;;19.97;7.67;;;-3.80;99.90;-5.10;100751;;;;569670;248;24113;-73
2021/12/12 07:34:32;;;;;;;24.90;8.20;;;-3.70;99.90;-5.00;100753;;;;569669;248;24081;-73
2021/12/12 07:37:00;;;;;;;30.93;11.73;;;-3.60;99.90;-4.90;100764;;;;569657;248;24085;-73
2021/12/12 07:39:29;;;;;;;23.67;9.97;;;-3.60;99.90;-4.90;100768;;;;558810;253;24137;-76
2021/12/12 07:42:00;;;;;;;32.37;11.47;;;-3.60;99.90;-5.00;100767;;;;559090;253;24104;-73
2021/12/12 07:44:25;;;;;;;27.17;11.00;;;-3.60;99.90;-5.00;100758;;;;558871;253;24125;-74
2021/12/12 07:46:54;;;;;;;26.23;7.03;;;-3.60;99.90;-5.00;100768;;;;559156;253;24112;-73
2021/12/12 07:49:21;;;;;;;31.63;11.03;;;-3.60;99.90;-4.90;100775;;;;559219;253;24084;-73
2021/12/12 07:51:49;;;;;;;8.63;4.40;;;-3.60;99.90;-4.90;100780;;;;559043;253;24130;-73
2021/12/12 07:54:17;;;;;;;20.73;7.53;;;-3.50;99.90;-4.80;100780;;;;559104;253;24139;-72
2021/12/12 07:56:45;;;;;;;16.93;7.23;;;-3.40;99.90;-4.70;100784;;;;558793;253;24104;-74
2021/12/12 07:59:14;;;;;;;14.57;5.03;;;-3.20;99.90;-4.60;100781;;;;569342;248;24091;-73
2021/12/12 08:01:43;;;;;;;9.40;5.20;;;-3.20;99.90;-4.50;100778;;;;569252;248;24108;-74
2021/12/12 08:04:11;;;;;;;17.57;7.20;;;-3.10;99.90;-4.40;100788;;;;569425;248;24106;-73
2021/12/12 08:06:40;;;;;;;10.90;5.60;;;-3.00;99.90;-4.40;100782;;;;569320;248;24094;-74
2021/12/12 08:09:08;;;;;;;6.10;3.90;;;-3.10;99.90;-4.30;100794;;;;569623;248;24119;-74
2021/12/12 08:11:36;;;;;;;9.10;3.10;;;-2.90;99.90;-4.20;100796;;;;578354;248;24091;-74
2021/12/12 08:14:04;;;;;;;9.03;3.87;;;-2.90;99.90;-4.10;100789;;;;569725;246;24128;-72
2021/12/12 08:16:32;;;;;;;9.30;2.53;;;-2.80;99.90;-4.10;100783;;;;571077;247;24094;-73
2021/12/12 08:19:00;;;;;;;5.37;3.27;;;-2.70;99.90;-3.90;100791;;;;570132;248;24109;-77
2021/12/12 08:21:33;;;;;;;6.17;3.20;;;-2.50;99.90;-3.80;100788;;;;577770;248;24107;-74
2021/12/12 08:23:57;;;;;;;6.50;2.30;;;-2.40;99.90;-3.70;100801;;;;584593;243;24059;-75
2021/12/12 08:26:26;;;;;;;8.87;3.53;;;-2.30;99.90;-3.60;100799;;;;577289;243;24125;-79
2021/12/12 08:28:54;;;;;;;7.90;3.83;;;-2.30;99.90;-3.50;100809;;;;580690;243;24074;-75
2021/12/12 08:31:21;;;;;;;12.20;4.57;;;-2.20;99.90;-3.40;100812;;;;580601;243;25121;-75
2021/12/12 08:33:49;;;;;;;6.07;2.87;;;-2.00;99.90;-3.30;100803;;;;580291;243;24102;-78
2021/12/12 08:36:17;;;;;;;14.97;5.90;;;-1.90;99.90;-3.20;100803;;;;569998;248;24171;-78
2021/12/12 08:38:48;;;;;;;9.30;3.87;;;-1.80;99.90;-3.00;100807;;;;580317;243;24169;-74
2021/12/12 08:41:13;;;;;;;13.17;7.37;;;-1.70;99.90;-3.00;100815;;;;568249;249;24186;-75
2021/12/12 08:43:42;;;;;;;21.43;10.33;;;-1.60;99.90;-3.00;100815;;;;569028;248;24127;-78
2021/12/12 08:46:09;;;;;;;22.43;9.20;;;-1.60;99.90;-3.00;100812;;;;569637;248;24101;-74
2021/12/12 08:48:37;;;;;;;5.55;3.62;;;-1.60;99.90;-3.00;100801;;;;572376;243;35161;-78
2021/12/12 08:51:05;;;;;;;3.53;3.00;;;-1.70;99.90;-3.00;100806;;;;576864;243;24112;-79
2021/12/12 08:53:33;;;;;;;5.30;2.77;;;-1.60;99.90;-3.00;100811;;;;579660;243;24069;-80
2021/12/12 08:56:02;;;;;;;5.47;4.97;;;-1.60;99.90;-2.90;100810;;;;574693;243;37968;-79
2021/12/12 08:58:30;;;;;;;1.40;1.40;;;-1.60;99.90;-2.90;100805;;;;579068;243;24090;-75
2021/12/12 09:00:58;;;;;;;1.27;1.17;;;-1.50;99.90;-2.80;100808;;;;579568;243;24101;-80
2021/12/12 09:03:44;;;;;;;4.20;3.80;;;-1.50;99.90;-2.80;100799;;;;583381;243;35073;-77
2021/12/12 09:06:13;;;;;;;1.07;1.07;;;-1.40;99.90;-2.70;100803;;;;579567;243;25109;-79
2021/12/12 09:08:49;;;;;;;4.63;4.13;;;-1.40;99.90;-2.60;100809;;;;574592;243;36178;-75
2021/12/12 09:11:20;;;;;;;8.82;4.87;;;-1.30;99.90;-2.50;100810;;;;570909;248;35381;-74
2021/12/12 09:13:53;;;;;;;0.20;0.20;;;-1.20;99.90;-2.30;100808;;;;576949;243;24117;-74
2021/12/12 09:16:21;;;;;;;0.53;0.27;;;-1.00;99.90;-2.20;100799;;;;574141;246;24105;-75
2021/12/12 09:18:52;;;;;;;0.00;0.00;;;-0.90;99.90;-2.10;100804;;;;569930;246;24100;-74
2021/12/12 09:21:25;;;;;;;0.00;0.00;;;-0.80;99.90;-2.00;100806;;;;561818;251;24160;-78
2021/12/12 09:24:10;;;;;;;0.00;0.00;;;-0.70;99.90;-1.90;100800;;;;562357;251;24130;-78
2021/12/12 09:26:39;;;;;;;0.30;0.30;;;-0.60;99.90;-1.80;100801;;;;562917;250;24130;-74
2021/12/12 09:29:25;;;;;;;0.70;0.27;;;-0.50;99.90;-1.80;100797;;;;563362;250;24173;-74
2021/12/12 09:31:57;;;;;;;1.80;1.70;;;-0.40;99.90;-1.70;100806;;;;581653;246;24122;-74
2021/12/12 09:34:23;;;;;;;6.43;1.90;;;-0.40;99.90;-1.90;100794;;;;562627;251;24104;-76
2021/12/12 09:36:58;;;;;;;0.70;0.70;;;-0.50;99.90;-1.90;100807;;;;562372;251;24137;-75
2021/12/12 09:39:29;;;;;;;0.13;0.13;;;-0.50;99.90;-1.80;100797;;;;562560;251;24231;-74
2021/12/12 09:42:31;;;;;;;0.20;0.20;;;-0.50;99.90;-1.70;100807;;;;572715;246;24103;-76
2021/12/12 09:45:10;;;;;;;0.00;0.00;;;-0.40;99.90;-1.70;100818;;;;570916;251;24153;-74
2021/12/12 09:48:14;;;;;;;0.13;0.13;;;-0.40;99.90;-1.60;100812;;;;561596;251;24167;-75
2021/12/12 09:54:00;;;;;;;0.00;0.00;;;-0.10;99.90;-1.40;100813;;;;562973;251;24186;-75
2021/12/12 09:56:38;;;;;;;0.00;0.00;;;0.00;99.90;-1.30;100811;;;;571379;246;25150;-75
2021/12/12 09:59:31;;;;;;;0.20;0.20;;;-0.10;99.90;-1.30;100805;;;;582644;246;24116;-74
2021/12/12 10:02:38;;;;;;;0.00;0.00;;;0.00;99.90;-1.20;100805;;;;562166;251;24202;-73
2021/12/12 10:05:33;;;;;;;0.00;0.00;;;0.10;99.90;-1.10;100807;;;;569974;247;24088;-74
2021/12/12 10:08:28;;;;;;;0.00;0.00;;;0.20;99.90;-1.00;100815;;;;568671;248;24119;-75
2021/12/12 10:11:29;;;;;;;0.40;0.40;;;0.20;99.90;-1.00;100813;;;;570097;251;24171;-73
2021/12/12 10:14:12;;;;;;;0.00;0.00;;;0.30;99.90;-0.90;100822;;;;562712;251;24105;-74
2021/12/12 10:16:58;;;;;;;0.10;0.10;;;0.40;99.90;-0.80;100816;;;;572212;246;24137;-77
2021/12/12 10:19:44;;;;;;;0.10;0.10;;;0.50;99.90;-0.80;100813;;;;580071;246;24141;-75
2021/12/12 10:22:39;;;;;;;0.07;0.07;;;0.50;99.90;-0.70;100826;;;;572752;246;24113;-74
2021/12/12 10:25:16;;;;;;;0.00;0.00;;;0.60;99.90;-0.60;100810;;;;570998;246;24114;-75
2021/12/12 10:28:20;;;;;;;0.00;0.00;;;0.60;99.90;-0.50;100825;;;;570894;251;24230;-73
2021/12/12 10:30:56;;;;;;;0.00;0.00;;;0.70;99.90;-0.40;100819;;;;571262;251;24118;-74
2021/12/12 10:33:40;;;;;;;0.10;0.10;;;0.90;99.90;-0.30;100819;;;;566881;249;24119;-79
2021/12/12 10:36:11;;;;;;;0.00;0.00;;;1.00;99.90;-0.30;100816;;;;573003;248;24137;-77
2021/12/12 10:39:01;;;;;;;0.00;0.00;;;1.00;99.90;-0.30;100809;;;;571294;247;24102;-75
2021/12/12 10:41:34;;;;;;;0.00;0.00;;;1.00;99.90;-0.20;100813;;;;565520;250;24162;-77
2021/12/12 10:44:04;;;;;;;0.00;0.00;;;1.10;99.90;-0.10;100811;;;;567144;253;24181;-73
2021/12/12 10:46:53;;;;;;;0.00;0.00;;;1.10;99.90;-0.10;100818;;;;573361;248;24133;-74
2021/12/12 10:49:29;;;;;;;0.00;0.00;;;1.20;99.90;0.00;100825;;;;558302;253;24157;-74
2021/12/12 10:51:57;;;;;;;0.10;0.10;;;1.20;99.90;0.00;100814;;;;569850;248;24081;-74
2021/12/12 10:54:47;;;;;;;0.10;0.10;;;1.30;99.90;0.10;100818;;;;571104;245;24174;-74
2021/12/12 10:57:15;;;;;;;4.22;2.33;;;1.40;99.90;0.20;100812;;;;562277;248;46032;-74
2021/12/12 10:59:43;;;;;;;1.00;0.73;;;1.50;99.90;0.30;100811;;;;569378;248;24127;-76
2021/12/12 11:02:11;;;;;;;0.00;0.00;;;1.50;99.90;0.40;100816;;;;564705;254;24141;-74
2021/12/12 11:04:45;;;;;;;0.53;0.53;;;1.70;99.90;0.50;100810;;;;555623;251;24115;-75
2021/12/12 11:07:27;;;;;;;0.20;0.20;;;1.80;99.90;0.60;100805;;;;555616;253;24160;-76
2021/12/12 11:10:17;;;;;;;0.00;0.00;;;1.90;99.90;0.80;100805;;;;555707;254;24130;-74
2021/12/12 11:12:44;;;;;;;0.10;0.10;;;2.10;99.90;1.10;100817;;;;562601;254;24111;-76
2021/12/12 11:15:30;;;;;;;0.00;0.00;;;2.30;99.90;1.10;100820;;;;555115;255;24118;-75
2021/12/12 11:18:25;;;;;;;0.00;0.00;;;2.40;99.90;1.20;100816;;;;554853;255;24115;-74
2021/12/12 11:20:54;;;;;;;0.43;0.43;;;2.50;99.90;1.30;100807;;;;556278;248;24127;-74
2021/12/12 11:23:22;;;;;;;0.00;0.00;;;2.70;99.90;1.40;100816;;;;554987;255;24126;-74
2021/12/12 11:25:52;;;;;;;0.00;0.00;;;2.70;99.90;1.40;100816;;;;564924;250;24166;-75
2021/12/12 11:28:32;;;;;;;0.00;0.00;;;2.70;99.90;1.40;100814;;;;564930;250;24132;-75
2021/12/12 11:31:15;;;;;;;0.00;0.00;;;2.70;99.90;1.20;100815;;;;564019;251;24161;-75
2021/12/12 11:33:43;;;;;;;0.27;0.27;;;2.70;99.90;1.10;100816;;;;565847;250;24094;-78
2021/12/12 11:36:15;;;;;;;0.00;0.00;;;2.60;99.90;1.00;100820;;;;564999;250;24091;-73
2021/12/12 11:39:03;;;;;;;0.30;0.30;;;2.50;99.90;1.00;100809;;;;555055;253;25174;-73
2021/12/12 11:41:55;;;;;;;0.00;0.00;;;2.40;99.90;0.90;100820;;;;575248;249;24208;-74
2021/12/12 11:44:23;;;;;;;0.00;0.00;;;2.30;99.90;0.90;100814;;;;560628;250;24094;-71